Time;durP1;ratioP1;P1;durP2;ratioP2;P2;SDS_P1;SDS_P2;PMS_P1;PMS_P2;Temp;Humidity;BMP_temperature;BMP_pressure;BME280_temperature;BME280_humidity;BME280_pressure;Samples;Min_cycle;Max_cycle;Signal;HPM_P1;HPM_P2
2023/09/26 00:01:00;;;;;;;25.98;14.50;;;;;;;;;;5049234;28;20033;-79
2023/09/26 00:03:26;;;;;;;21.63;13.70;;;;;;;;;;5049004;28;20044;-80
2023/09/26 00:05:54;;;;;;;23.73;13.75;;;;;;;;;;5050321;28;20377;-80
2023/09/26 00:08:19;;;;;;;36.75;14.32;;;;;;;;;;5045096;28;20033;-81
2023/09/26 00:10:46;;;;;;;25.85;14.90;;;;;;;;;;5047708;28;20056;-80
2023/09/26 00:13:12;;;;;;;26.77;15.88;;;;;;;;;;5046372;28;20036;-81
2023/09/26 00:15:37;;;;;;;34.63;18.15;;;;;;;;;;5047739;28;20505;-78
2023/09/26 00:18:03;;;;;;;35.63;16.95;;;;;;;;;;5046403;28;20044;-78
2023/09/26 00:20:29;;;;;;;32.42;16.48;;;;;;;;;;5047725;28;20016;-79
2023/09/26 00:22:55;;;;;;;30.65;16.50;;;;;;;;;;5047773;28;20033;-79
2023/09/26 00:25:21;;;;;;;29.02;15.68;;;;;;;;;;5045829;28;20097;-81
2023/09/26 00:27:46;;;;;;;27.70;14.85;;;;;;;;;;5039243;28;20048;-77
2023/09/26 00:30:12;;;;;;;21.42;13.35;;;;;;;;;;5044516;28;20021;-78
2023/09/26 00:32:38;;;;;;;24.48;12.90;;;;;;;;;;5040069;28;20099;-78
2023/09/26 00:35:05;;;;;;;22.35;13.00;;;;;;;;;;5044612;28;20053;-79
2023/09/26 00:37:31;;;;;;;23.35;14.15;;;;;;;;;;5041087;28;20046;-79
2023/09/26 00:39:56;;;;;;;24.40;13.90;;;;;;;;;;5050143;28;20055;-78
2023/09/26 00:42:21;;;;;;;23.38;13.73;;;;;;;;;;5046669;28;20021;-78
2023/09/26 00:44:47;;;;;;;18.08;12.20;;;;;;;;;;5049471;28;20025;-78
2023/09/26 00:47:12;;;;;;;18.90;12.07;;;;;;;;;;5043964;28;20028;-78
2023/09/26 00:49:38;;;;;;;17.58;11.10;;;;;;;;;;5048058;28;20033;-78
2023/09/26 00:52:07;;;;;;;14.70;9.90;;;;;;;;;;5044264;28;20049;-78
2023/09/26 00:54:33;;;;;;;19.27;10.45;;;;;;;;;;5047372;28;20521;-79
2023/09/26 00:56:58;;;;;;;15.40;9.20;;;;;;;;;;5046719;28;20032;-79
2023/09/26 00:59:25;;;;;;;14.63;9.00;;;;;;;;;;5044995;28;20034;-79
2023/09/26 01:01:50;;;;;;;14.88;10.00;;;;;;;;;;5044871;28;20112;-79
2023/09/26 01:04:16;;;;;;;16.67;11.13;;;;;;;;;;5043589;28;20052;-79
2023/09/26 01:06:43;;;;;;;17.08;10.68;;;;;;;;;;5046557;28;20410;-79
2023/09/26 01:09:10;;;;;;;14.10;9.48;;;;;;;;;;5043766;28;20175;-79
2023/09/26 01:11:36;;;;;;;15.50;9.57;;;;;;;;;;5050218;28;20024;-79
2023/09/26 01:14:02;;;;;;;16.15;10.45;;;;;;;;;;5047969;28;20401;-79
2023/09/26 01:16:27;;;;;;;14.15;9.95;;;;;;;;;;5046447;28;20032;-79
2023/09/26 01:18:52;;;;;;;12.25;9.20;;;;;;;;;;5047163;28;20972;-79
2023/09/26 01:21:18;;;;;;;14.93;9.50;;;;;;;;;;5042591;28;20470;-79
2023/09/26 01:23:47;;;;;;;13.27;9.02;;;;;;;;;;5044341;28;20114;-79
2023/09/26 01:26:13;;;;;;;12.35;9.13;;;;;;;;;;5048138;28;20060;-78
2023/09/26 01:28:38;;;;;;;10.13;7.85;;;;;;;;;;5045627;28;20033;-78
2023/09/26 01:31:03;;;;;;;13.18;8.02;;;;;;;;;;5040856;28;20052;-79
2023/09/26 01:33:29;;;;;;;10.80;7.40;;;;;;;;;;5048529;28;20029;-79
2023/09/26 01:35:54;;;;;;;32.20;6.90;;;;;;;;;;5047251;28;20052;-79
2023/09/26 01:38:21;;;;;;;9.10;5.90;;;;;;;;;;5044116;28;20085;-79
2023/09/26 01:40:46;;;;;;;6.47;5.35;;;;;;;;;;5046827;28;20493;-79
2023/09/26 01:43:11;;;;;;;398.40;27.90;;;;;;;;;;5048965;28;20104;-78
2023/09/26 01:45:37;;;;;;;5.40;4.40;;;;;;;;;;5048057;28;20029;-79
2023/09/26 01:48:05;;;;;;;155.10;10.95;;;;;;;;;;5046870;28;20084;-78
2023/09/26 01:50:31;;;;;;;9.85;4.00;;;;;;;;;;5042038;28;20056;-81
2023/09/26 01:52:57;;;;;;;7.50;5.13;;;;;;;;;;5047593;28;20157;-78
2023/09/26 01:55:22;;;;;;;7.55;5.47;;;;;;;;;;5048528;28;20106;-78
2023/09/26 01:57:50;;;;;;;9.35;5.15;;;;;;;;;;5049724;28;20029;-79
2023/09/26 02:00:19;;;;;;;12.63;5.70;;;;;;;;;;5046508;28;20017;-79
2023/09/26 02:02:50;;;;;;;33.88;7.47;;;;;;;;;;5045300;28;20044;-79
2023/09/26 02:05:18;;;;;;;11.73;8.73;;;;;;;;;;5048417;28;20029;-81
2023/09/26 02:07:45;;;;;;;16.45;9.52;;;;;;;;;;5043575;28;20045;-80
2023/09/26 02:10:11;;;;;;;16.48;9.27;;;;;;;;;;5045642;28;20037;-80
2023/09/26 02:12:39;;;;;;;15.00;9.40;;;;;;;;;;5047971;28;20126;-80
2023/09/26 02:15:07;;;;;;;17.40;9.00;;;;;;;;;;5047928;28;20098;-81
2023/09/26 02:17:35;;;;;;;10.90;8.50;;;;;;;;;;5047647;28;21245;-78
2023/09/26 02:20:02;;;;;;;18.15;10.32;;;;;;;;;;5042102;28;20037;-78
2023/09/26 02:22:27;;;;;;;13.57;9.68;;;;;;;;;;5045640;28;20054;-81
2023/09/26 02:24:52;;;;;;;12.50;9.02;;;;;;;;;;5043830;28;20049;-79
2023/09/26 02:27:18;;;;;;;17.52;9.32;;;;;;;;;;5047161;28;20162;-78
2023/09/26 02:29:44;;;;;;;146.23;11.20;;;;;;;;;;5047165;28;20051;-80
2023/09/26 02:32:10;;;;;;;15.15;8.70;;;;;;;;;;5048010;28;20049;-79
2023/09/26 02:34:35;;;;;;;18.95;8.00;;;;;;;;;;5052196;28;20036;-79
2023/09/26 02:37:01;;;;;;;14.65;8.68;;;;;;;;;;5048604;28;21139;-79
2023/09/26 02:39:26;;;;;;;23.02;10.07;;;;;;;;;;5048775;28;20651;-79
2023/09/26 02:41:51;;;;;;;25.27;10.85;;;;;;;;;;5053360;28;20017;-79
2023/09/26 02:44:16;;;;;;;23.80;10.45;;;;;;;;;;5047148;28;20099;-79
2023/09/26 02:46:42;;;;;;;17.85;10.25;;;;;;;;;;5049747;28;20471;-79
2023/09/26 02:49:07;;;;;;;14.52;10.20;;;;;;;;;;5049725;28;20033;-79
2023/09/26 02:51:32;;;;;;;17.25;9.25;;;;;;;;;;5048821;28;20037;-79
2023/09/26 02:53:57;;;;;;;23.50;8.80;;;;;;;;;;5048130;28;20048;-79
2023/09/26 02:56:23;;;;;;;19.52;9.30;;;;;;;;;;5052393;28;20037;-79
2023/09/26 02:58:48;;;;;;;15.25;6.72;;;;;;;;;;5050203;28;20025;-79
2023/09/26 03:01:17;;;;;;;48.90;9.88;;;;;;;;;;5046118;28;20072;-80
2023/09/26 03:03:42;;;;;;;13.75;7.43;;;;;;;;;;5050072;28;20037;-81
2023/09/26 03:06:08;;;;;;;13.55;8.30;;;;;;;;;;5046889;28;20028;-79
2023/09/26 03:08:33;;;;;;;10.88;7.30;;;;;;;;;;5051847;28;20059;-79
2023/09/26 03:10:59;;;;;;;13.00;7.65;;;;;;;;;;5050829;28;20099;-80
2023/09/26 03:13:24;;;;;;;12.30;6.13;;;;;;;;;;5051266;28;20457;-80
2023/09/26 03:15:56;;;;;;;25.77;6.72;;;;;;;;;;5049664;28;20033;-79
2023/09/26 03:18:21;;;;;;;5.97;5.22;;;;;;;;;;5050234;28;20020;-79
2023/09/26 03:20:47;;;;;;;9.70;5.85;;;;;;;;;;5050770;28;20065;-79
2023/09/26 03:23:13;;;;;;;15.40;6.65;;;;;;;;;;5042730;28;20059;-79
2023/09/26 03:25:38;;;;;;;9.05;5.47;;;;;;;;;;5047462;28;20045;-79
2023/09/26 03:28:04;;;;;;;7.05;4.82;;;;;;;;;;5045236;28;20052;-79
2023/09/26 03:30:29;;;;;;;8.38;5.13;;;;;;;;;;5047215;28;20045;-79
2023/09/26 03:32:54;;;;;;;6.85;5.32;;;;;;;;;;5048547;28;20021;-78
2023/09/26 03:35:20;;;;;;;10.02;5.93;;;;;;;;;;5043422;28;20536;-78
2023/09/26 03:37:45;;;;;;;11.00;5.05;;;;;;;;;;5041913;28;20037;-79
2023/09/26 03:40:10;;;;;;;17.30;5.97;;;;;;;;;;5039554;28;20036;-79
2023/09/26 03:42:36;;;;;;;10.27;5.80;;;;;;;;;;5042795;28;20037;-79
2023/09/26 03:45:01;;;;;;;6.78;5.47;;;;;;;;;;5042088;28;20104;-79
2023/09/26 03:47:26;;;;;;;58.60;6.68;;;;;;;;;;5046639;28;20191;-79
2023/09/26 03:49:52;;;;;;;9.80;5.28;;;;;;;;;;5045402;28;20044;-79
2023/09/26 03:52:18;;;;;;;10.77;5.00;;;;;;;;;;5043730;28;20030;-79
2023/09/26 03:54:43;;;;;;;4.88;4.18;;;;;;;;;;5043808;28;20041;-78
2023/09/26 03:57:08;;;;;;;6.20;4.80;;;;;;;;;;5045949;28;20028;-79
2023/09/26 03:59:34;;;;;;;9.52;6.57;;;;;;;;;;5046880;28;20211;-78
2023/09/26 04:01:59;;;;;;;13.82;9.63;;;;;;;;;;5043001;28;20496;-79
2023/09/26 04:04:24;;;;;;;19.50;10.52;;;;;;;;;;5042344;28;20045;-79
2023/09/26 04:06:50;;;;;;;20.42;9.98;;;;;;;;;;5040147;28;20045;-79
2023/09/26 04:09:15;;;;;;;17.13;9.70;;;;;;;;;;5039787;28;20103;-78
2023/09/26 04:11:40;;;;;;;15.82;9.10;;;;;;;;;;5042237;28;20100;-79
2023/09/26 04:14:06;;;;;;;14.82;7.93;;;;;;;;;;5040313;28;20038;-79
2023/09/26 04:16:31;;;;;;;13.98;7.53;;;;;;;;;;5041405;28;20037;-79
2023/09/26 04:18:56;;;;;;;11.50;6.53;;;;;;;;;;5047541;28;20472;-79
2023/09/26 04:21:22;;;;;;;8.65;6.25;;;;;;;;;;5044140;28;21636;-79
2023/09/26 04:23:47;;;;;;;5.97;4.93;;;;;;;;;;5037631;28;20037;-79
2023/09/26 04:26:14;;;;;;;6.82;4.68;;;;;;;;;;5043469;28;20037;-81
2023/09/26 04:28:43;;;;;;;6.55;4.82;;;;;;;;;;5041509;28;20575;-79
2023/09/26 04:31:16;;;;;;;6.47;5.18;;;;;;;;;;5037036;28;20041;-79
2023/09/26 04:33:47;;;;;;;10.13;5.10;;;;;;;;;;5047560;28;20033;-79
2023/09/26 04:36:12;;;;;;;6.75;4.65;;;;;;;;;;5041705;28;20119;-79
2023/09/26 04:38:38;;;;;;;6.82;5.15;;;;;;;;;;5035972;28;20045;-79
2023/09/26 04:41:04;;;;;;;5.32;4.60;;;;;;;;;;5037468;28;20063;-79
2023/09/26 04:43:33;;;;;;;5.53;4.70;;;;;;;;;;5041216;28;21751;-79
2023/09/26 04:45:58;;;;;;;6.97;5.32;;;;;;;;;;5047002;28;20037;-79
2023/09/26 04:48:24;;;;;;;8.93;5.30;;;;;;;;;;5046681;28;20533;-79
2023/09/26 04:50:49;;;;;;;9.05;5.47;;;;;;;;;;5042317;28;20112;-79
2023/09/26 04:53:15;;;;;;;6.50;4.90;;;;;;;;;;5038391;28;20045;-79
2023/09/26 04:55:41;;;;;;;7.78;5.78;;;;;;;;;;5044680;28;20029;-80
2023/09/26 04:58:07;;;;;;;12.43;6.50;;;;;;;;;;5047342;28;20112;-80
2023/09/26 05:00:32;;;;;;;9.40;6.10;;;;;;;;;;5044682;28;20059;-79
2023/09/26 05:02:58;;;;;;;5.72;5.13;;;;;;;;;;5042183;28;20781;-79
2023/09/26 05:05:27;;;;;;;8.82;6.00;;;;;;;;;;5038617;28;20064;-79
2023/09/26 05:07:52;;;;;;;8.68;5.65;;;;;;;;;;5030752;28;20057;-79
2023/09/26 05:10:18;;;;;;;9.18;5.55;;;;;;;;;;5036952;28;20067;-79
2023/09/26 05:12:43;;;;;;;6.85;5.40;;;;;;;;;;5040169;28;20068;-79
2023/09/26 05:15:14;;;;;;;9.23;5.03;;;;;;;;;;5044279;28;20037;-79
2023/09/26 05:17:41;;;;;;;5.93;4.78;;;;;;;;;;5040088;28;20029;-79
2023/09/26 05:20:08;;;;;;;12.02;5.30;;;;;;;;;;5042773;28;20037;-80
2023/09/26 05:22:33;;;;;;;6.85;4.68;;;;;;;;;;5044166;28;20052;-78
2023/09/26 05:24:59;;;;;;;10.45;3.85;;;;;;;;;;5038778;28;20048;-80
2023/09/26 05:27:24;;;;;;;6.78;4.53;;;;;;;;;;5045003;28;20430;-79
2023/09/26 05:29:49;;;;;;;6.25;4.40;;;;;;;;;;5068524;22;20052;-78
2023/09/26 05:32:14;;;;;;;7.95;4.72;;;;;;;;;;5036776;28;20140;-76
2023/09/26 05:34:40;;;;;;;15.25;4.95;;;;;;;;;;5042057;28;20040;-76
2023/09/26 05:37:05;;;;;;;11.40;4.40;;;;;;;;;;5035362;28;20036;-77
2023/09/26 05:39:30;;;;;;;9.02;4.85;;;;;;;;;;5041047;28;20539;-77
2023/09/26 05:41:55;;;;;;;16.23;5.07;;;;;;;;;;5063105;28;20025;-77
2023/09/26 05:44:21;;;;;;;11.20;4.90;;;;;;;;;;5064411;28;20416;-77
2023/09/26 05:46:46;;;;;;;24.00;5.50;;;;;;;;;;5062506;28;20029;-80
2023/09/26 05:49:11;;;;;;;15.93;7.10;;;;;;;;;;5060681;28;20512;-77
2023/09/26 05:51:37;;;;;;;26.23;15.00;;;;;;;;;;5056119;28;20128;-77
2023/09/26 05:54:02;;;;;;;18.42;8.00;;;;;;;;;;5047293;28;20495;-77
2023/09/26 05:56:27;;;;;;;16.50;7.07;;;;;;;;;;5054788;28;20040;-77
2023/09/26 05:58:53;;;;;;;23.35;8.25;;;;;;;;;;5058296;28;20044;-76
2023/09/26 06:01:18;;;;;;;22.33;6.25;;;;;;;;;;5062824;28;20424;-77
2023/09/26 06:03:43;;;;;;;17.63;6.78;;;;;;;;;;5060463;28;20480;-77
2023/09/26 06:06:09;;;;;;;11.95;5.38;;;;;;;;;;5055727;28;20035;-77
2023/09/26 06:08:34;;;;;;;14.98;5.53;;;;;;;;;;5057861;28;20028;-77
2023/09/26 06:11:00;;;;;;;10.75;5.65;;;;;;;;;;5063699;28;20454;-77
2023/09/26 06:13:26;;;;;;;18.52;5.35;;;;;;;;;;5067116;28;20037;-77
2023/09/26 06:15:51;;;;;;;25.95;5.38;;;;;;;;;;5064013;28;20037;-77
2023/09/26 06:18:17;;;;;;;16.77;5.32;;;;;;;;;;5060469;28;20476;-77
2023/09/26 06:20:44;;;;;;;12.57;4.97;;;;;;;;;;5049340;28;20020;-77
2023/09/26 06:23:09;;;;;;;13.45;4.85;;;;;;;;;;5060977;28;20428;-77
2023/09/26 06:25:35;;;;;;;11.07;3.38;;;;;;;;;;5063580;28;20110;-77
2023/09/26 06:28:00;;;;;;;3.92;3.10;;;;;;;;;;5061888;28;21307;-77
2023/09/26 06:30:25;;;;;;;8.13;3.60;;;;;;;;;;5050490;28;20183;-77
2023/09/26 06:32:50;;;;;;;3.58;3.08;;;;;;;;;;5064170;28;20033;-77
2023/09/26 06:35:16;;;;;;;13.00;3.13;;;;;;;;;;5038512;28;20059;-77
2023/09/26 06:37:41;;;;;;;5.43;2.97;;;;;;;;;;5062185;28;20492;-77
2023/09/26 06:40:07;;;;;;;3.33;2.90;;;;;;;;;;5063087;28;20052;-77
2023/09/26 06:42:33;;;;;;;3.85;2.50;;;;;;;;;;5052710;28;20684;-77
2023/09/26 06:44:59;;;;;;;5.00;2.78;;;;;;;;;;5065887;28;20087;-78
2023/09/26 06:47:25;;;;;;;8.73;3.08;;;;;;;;;;5068181;28;20040;-78
2023/09/26 06:49:52;;;;;;;11.40;3.15;;;;;;;;;;5067522;28;20076;-78
2023/09/26 06:52:18;;;;;;;2.95;2.47;;;;;;;;;;5063259;28;20047;-78
2023/09/26 06:54:43;;;;;;;4.75;2.70;;;;;;;;;;5068086;28;20547;-78
2023/09/26 06:57:09;;;;;;;3.92;2.90;;;;;;;;;;5065946;28;20112;-77
2023/09/26 06:59:36;;;;;;;6.60;2.30;;;;;;;;;;5067691;28;20044;-77
2023/09/26 07:02:01;;;;;;;3.47;2.90;;;;;;;;;;5064454;28;20041;-78
2023/09/26 07:04:26;;;;;;;2.53;2.33;;;;;;;;;;5066163;28;20031;-78
2023/09/26 07:06:52;;;;;;;9.55;3.17;;;;;;;;;;5065243;28;20041;-78
2023/09/26 07:09:17;;;;;;;3.72;2.58;;;;;;;;;;5061318;28;20028;-78
2023/09/26 07:11:42;;;;;;;4.75;2.63;;;;;;;;;;5063816;28;20043;-78
2023/09/26 07:14:07;;;;;;;5.00;2.50;;;;;;;;;;5061511;28;20032;-78
2023/09/26 07:16:33;;;;;;;5.03;2.83;;;;;;;;;;5063910;28;20033;-78
2023/09/26 07:18:59;;;;;;;3.58;2.90;;;;;;;;;;5063634;28;20041;-78
2023/09/26 07:21:25;;;;;;;4.82;3.42;;;;;;;;;;5057384;28;20628;-78
2023/09/26 07:23:50;;;;;;;7.50;3.90;;;;;;;;;;5063159;28;20032;-78
2023/09/26 07:26:17;;;;;;;4.95;3.83;;;;;;;;;;5050291;28;20036;-78
2023/09/26 07:28:47;;;;;;;8.80;4.68;;;;;;;;;;5047505;28;20043;-78
2023/09/26 07:31:13;;;;;;;9.05;4.80;;;;;;;;;;5062929;28;20127;-78
2023/09/26 07:33:39;;;;;;;6.10;4.20;;;;;;;;;;5066523;28;20075;-79
2023/09/26 07:36:06;;;;;;;10.48;5.13;;;;;;;;;;5066231;28;20150;-78
2023/09/26 07:38:32;;;;;;;5.43;4.75;;;;;;;;;;5062413;28;20031;-78
2023/09/26 07:40:58;;;;;;;6.28;4.88;;;;;;;;;;5062285;28;20037;-78
2023/09/26 07:43:29;;;;;;;6.75;5.45;;;;;;;;;;5059762;28;20497;-77
2023/09/26 07:45:56;;;;;;;7.82;5.60;;;;;;;;;;5049870;28;20044;-77
2023/09/26 07:48:23;;;;;;;10.85;5.22;;;;;;;;;;5066179;28;20032;-77
2023/09/26 07:50:48;;;;;;;6.47;5.07;;;;;;;;;;5064083;28;20032;-77
2023/09/26 07:53:14;;;;;;;7.63;4.93;;;;;;;;;;5069525;28;20047;-77
2023/09/26 07:55:39;;;;;;;5.18;4.68;;;;;;;;;;5061085;28;20044;-77
2023/09/26 07:58:04;;;;;;;5.07;4.57;;;;;;;;;;5064509;28;20045;-77
2023/09/26 08:00:30;;;;;;;10.10;4.93;;;;;;;;;;5065163;28;20040;-77
2023/09/26 08:02:55;;;;;;;6.45;4.20;;;;;;;;;;5049964;28;20020;-77
2023/09/26 08:05:21;;;;;;;5.82;4.00;;;;;;;;;;5066394;28;20024;-77
2023/09/26 08:07:48;;;;;;;5.18;4.00;;;;;;;;;;5043441;28;20156;-77
2023/09/26 08:10:13;;;;;;;4.07;3.70;;;;;;;;;;5065077;28;20041;-77
2023/09/26 08:12:39;;;;;;;7.97;3.75;;;;;;;;;;5062766;28;20041;-77
2023/09/26 08:15:05;;;;;;;4.18;3.45;;;;;;;;;;5061400;28;20158;-77
2023/09/26 08:17:30;;;;;;;7.43;4.10;;;;;;;;;;5064858;28;20036;-77
2023/09/26 08:19:55;;;;;;;3.95;3.53;;;;;;;;;;5063709;28;20041;-77
2023/09/26 08:22:21;;;;;;;3.85;3.38;;;;;;;;;;5065101;28;20396;-77
2023/09/26 08:24:47;;;;;;;4.45;3.20;;;;;;;;;;5068468;28;20037;-77
2023/09/26 08:27:12;;;;;;;3.60;3.10;;;;;;;;;;5065081;28;20035;-77
2023/09/26 08:29:38;;;;;;;3.40;3.10;;;;;;;;;;5066487;28;20036;-77
2023/09/26 08:32:03;;;;;;;9.57;3.60;;;;;;;;;;5064276;28;20675;-77
2023/09/26 08:34:28;;;;;;;3.05;2.65;;;;;;;;;;5067161;28;20036;-77
2023/09/26 08:36:54;;;;;;;7.38;3.20;;;;;;;;;;5065979;28;20363;-78
2023/09/26 08:39:20;;;;;;;5.80;2.78;;;;;;;;;;5066481;28;20119;-78
2023/09/26 08:41:48;;;;;;;3.28;2.92;;;;;;;;;;5066158;28;20032;-78
2023/09/26 08:44:13;;;;;;;6.57;2.80;;;;;;;;;;5065564;28;20040;-77
2023/09/26 08:46:39;;;;;;;5.05;3.03;;;;;;;;;;5047560;28;20386;-77
2023/09/26 08:49:05;;;;;;;6.47;2.70;;;;;;;;;;5066716;28;20044;-77
2023/09/26 08:51:31;;;;;;;3.40;2.90;;;;;;;;;;5060625;28;20342;-77
2023/09/26 08:53:57;;;;;;;5.18;2.85;;;;;;;;;;5043894;28;20113;-77
2023/09/26 08:56:22;;;;;;;7.30;2.97;;;;;;;;;;5064267;28;20505;-77
2023/09/26 08:58:49;;;;;;;6.57;3.03;;;;;;;;;;5065280;28;20040;-77
2023/09/26 09:01:16;;;;;;;5.40;3.13;;;;;;;;;;5069663;28;20051;-77
2023/09/26 09:03:42;;;;;;;4.05;2.83;;;;;;;;;;5064013;28;20056;-78
2023/09/26 09:06:08;;;;;;;6.47;2.80;;;;;;;;;;5045336;28;20408;-77
2023/09/26 09:08:33;;;;;;;3.22;2.92;;;;;;;;;;5069518;28;20020;-77
2023/09/26 09:10:58;;;;;;;6.07;3.08;;;;;;;;;;5050796;28;20516;-76
2023/09/26 09:13:42;;;;;;;5.18;2.67;;;;;;;;;;5062182;28;20047;-75
2023/09/26 09:16:13;;;;;;;5.57;2.90;;;;;;;;;;5069037;28;20490;-78
2023/09/26 09:18:43;;;;;;;8.07;2.63;;;;;;;;;;5069210;28;20291;-78
2023/09/26 09:21:22;;;;;;;5.68;2.92;;;;;;;;;;5065507;28;20106;-78
2023/09/26 09:23:49;;;;;;;3.35;2.92;;;;;;;;;;5076704;28;20020;-77
2023/09/26 09:26:14;;;;;;;3.00;2.70;;;;;;;;;;5083625;28;20032;-77
2023/09/26 09:28:40;;;;;;;4.68;3.08;;;;;;;;;;5059831;28;20044;-78
2023/09/26 09:31:05;;;;;;;4.65;3.05;;;;;;;;;;5080645;28;20159;-77
2023/09/26 09:33:31;;;;;;;5.00;2.97;;;;;;;;;;5082319;28;20046;-78
2023/09/26 09:35:57;;;;;;;3.05;2.75;;;;;;;;;;5065124;28;20153;-77
2023/09/26 09:38:22;;;;;;;3.20;2.90;;;;;;;;;;5083851;28;20029;-77
2023/09/26 09:40:47;;;;;;;4.78;3.08;;;;;;;;;;5079822;28;20033;-77
2023/09/26 09:43:13;;;;;;;3.70;2.95;;;;;;;;;;5086817;28;20043;-77
2023/09/26 09:45:41;;;;;;;4.07;2.72;;;;;;;;;;5084199;28;20024;-77
2023/09/26 09:48:09;;;;;;;3.35;2.90;;;;;;;;;;5083869;28;20111;-79
2023/09/26 09:50:37;;;;;;;4.70;2.80;;;;;;;;;;5087997;28;20511;-77
2023/09/26 09:53:03;;;;;;;4.13;2.80;;;;;;;;;;5083110;28;20032;-76
2023/09/26 09:55:36;;;;;;;3.08;2.53;;;;;;;;;;5082723;28;20035;-76
2023/09/26 09:58:08;;;;;;;3.65;2.83;;;;;;;;;;5062419;28;20040;-75
2023/09/26 10:00:36;;;;;;;2.95;2.65;;;;;;;;;;5080361;28;20028;-75
2023/09/26 10:03:04;;;;;;;11.18;2.65;;;;;;;;;;5083337;28;20055;-76
2023/09/26 10:05:30;;;;;;;6.03;2.30;;;;;;;;;;5080421;28;20047;-75
2023/09/26 10:07:57;;;;;;;2.60;2.40;;;;;;;;;;5082868;28;20115;-76
2023/09/26 10:10:24;;;;;;;2.65;2.45;;;;;;;;;;5086766;28;20094;-76
2023/09/26 10:12:51;;;;;;;3.22;2.53;;;;;;;;;;5080998;28;20492;-76
2023/09/26 10:15:17;;;;;;;2.72;2.50;;;;;;;;;;5083064;28;20017;-76
2023/09/26 10:17:51;;;;;;;4.13;2.40;;;;;;;;;;5074686;28;20074;-76
2023/09/26 10:20:16;;;;;;;4.22;1.92;;;;;;;;;;5079182;28;20369;-76
2023/09/26 10:22:44;;;;;;;2.60;2.40;;;;;;;;;;5079917;28;20029;-76
2023/09/26 10:25:18;;;;;;;4.90;2.40;;;;;;;;;;5078887;28;20036;-76
2023/09/26 10:27:47;;;;;;;3.78;2.40;;;;;;;;;;5082227;28;20029;-76
2023/09/26 10:30:18;;;;;;;2.70;2.13;;;;;;;;;;5085804;28;20628;-76
2023/09/26 10:32:44;;;;;;;2.95;2.70;;;;;;;;;;5072508;28;20107;-76
2023/09/26 10:35:12;;;;;;;3.72;2.45;;;;;;;;;;5076288;28;20044;-76
2023/09/26 10:37:38;;;;;;;3.13;2.25;;;;;;;;;;5088496;28;20412;-76
2023/09/26 10:40:03;;;;;;;7.03;2.95;;;;;;;;;;5080407;28;20036;-77
2023/09/26 10:42:29;;;;;;;2.50;2.30;;;;;;;;;;5083510;28;20032;-77
2023/09/26 10:44:54;;;;;;;6.63;2.65;;;;;;;;;;5081206;28;20084;-76
2023/09/26 10:47:23;;;;;;;2.92;2.08;;;;;;;;;;5083384;28;20036;-77
2023/09/26 10:49:49;;;;;;;3.45;2.40;;;;;;;;;;5080080;28;20143;-77
2023/09/26 10:52:15;;;;;;;4.10;2.50;;;;;;;;;;5079413;28;20111;-77
2023/09/26 10:54:41;;;;;;;4.80;2.55;;;;;;;;;;5078768;28;20108;-77
2023/09/26 10:57:07;;;;;;;10.75;2.22;;;;;;;;;;5082692;28;20096;-77
2023/09/26 10:59:33;;;;;;;3.30;3.00;;;;;;;;;;5075503;28;20027;-77
2023/09/26 11:02:00;;;;;;;2.92;2.40;;;;;;;;;;5078121;28;20036;-76
2023/09/26 11:04:29;;;;;;;6.63;2.65;;;;;;;;;;5082572;28;20071;-77
2023/09/26 11:06:59;;;;;;;2.72;2.25;;;;;;;;;;5082590;28;20419;-77
2023/09/26 11:09:25;;;;;;;6.47;2.30;;;;;;;;;;5063211;28;21467;-77
2023/09/26 11:11:51;;;;;;;3.40;2.50;;;;;;;;;;5081919;28;20036;-77
2023/09/26 11:14:17;;;;;;;2.65;2.45;;;;;;;;;;5084660;28;20029;-76
2023/09/26 11:16:43;;;;;;;5.57;2.55;;;;;;;;;;5083627;28;20048;-77
2023/09/26 11:19:09;;;;;;;2.95;2.40;;;;;;;;;;5080550;28;20500;-76
2023/09/26 11:21:35;;;;;;;5.38;3.03;;;;;;;;;;5082711;28;20083;-77
2023/09/26 11:24:22;;;;;;;2.55;2.35;;;;;;;;;;5083832;28;20073;-77
2023/09/26 11:26:50;;;;;;;4.00;2.50;;;;;;;;;;5078714;28;20123;-77
2023/09/26 11:29:17;;;;;;;4.38;2.30;;;;;;;;;;5077895;28;20025;-77
2023/09/26 11:31:44;;;;;;;3.00;2.25;;;;;;;;;;5059714;23;20484;-79
2023/09/26 11:34:09;;;;;;;5.32;2.45;;;;;;;;;;5030315;28;20025;-80
2023/09/26 11:36:35;;;;;;;2.75;2.25;;;;;;;;;;5025353;28;20106;-79
2023/09/26 11:39:00;;;;;;;2.65;2.17;;;;;;;;;;5032409;28;20641;-79
2023/09/26 11:41:26;;;;;;;1.95;1.85;;;;;;;;;;5026687;28;20029;-79
2023/09/26 11:43:52;;;;;;;4.53;2.13;;;;;;;;;;5034485;28;20033;-79
2023/09/26 11:46:18;;;;;;;3.45;2.50;;;;;;;;;;5028257;28;20054;-79
2023/09/26 11:48:46;;;;;;;2.30;2.00;;;;;;;;;;5026190;28;20025;-79
2023/09/26 11:51:12;;;;;;;2.58;2.00;;;;;;;;;;5029446;28;20026;-80
2023/09/26 11:53:40;;;;;;;3.90;2.38;;;;;;;;;;5030146;28;20059;-80
2023/09/26 11:56:07;;;;;;;2.15;1.95;;;;;;;;;;5032351;28;20128;-79
2023/09/26 11:58:32;;;;;;;2.63;1.95;;;;;;;;;;5037617;28;20037;-79
2023/09/26 12:00:58;;;;;;;3.45;2.17;;;;;;;;;;5029382;28;20041;-79
2023/09/26 12:03:23;;;;;;;5.97;2.17;;;;;;;;;;5026878;28;20120;-79
2023/09/26 12:05:49;;;;;;;2.05;1.95;;;;;;;;;;5023481;28;21474;-78
2023/09/26 12:08:14;;;;;;;2.65;1.80;;;;;;;;;;5025679;28;20034;-78
2023/09/26 12:10:40;;;;;;;2.45;2.13;;;;;;;;;;5040292;28;20041;-79
2023/09/26 12:13:06;;;;;;;2.10;1.90;;;;;;;;;;5040534;28;20037;-78
2023/09/26 12:15:32;;;;;;;2.25;2.00;;;;;;;;;;5036764;28;20037;-79
2023/09/26 12:17:59;;;;;;;7.25;2.17;;;;;;;;;;5042035;28;20535;-79
2023/09/26 12:20:24;;;;;;;1.85;1.73;;;;;;;;;;5035785;28;20531;-79
2023/09/26 12:22:51;;;;;;;8.27;2.00;;;;;;;;;;5040432;28;20029;-79
2023/09/26 12:25:19;;;;;;;2.00;1.90;;;;;;;;;;5031800;28;20567;-78
2023/09/26 12:27:44;;;;;;;3.97;2.00;;;;;;;;;;5025691;28;20041;-79
2023/09/26 12:30:10;;;;;;;2.30;1.80;;;;;;;;;;5023220;28;20033;-79
2023/09/26 12:32:36;;;;;;;2.50;2.25;;;;;;;;;;5028544;28;20025;-79
2023/09/26 12:35:01;;;;;;;2.10;2.00;;;;;;;;;;5034518;28;20122;-79
2023/09/26 12:37:27;;;;;;;4.40;2.00;;;;;;;;;;5041974;28;20037;-78
2023/09/26 12:39:52;;;;;;;2.40;1.90;;;;;;;;;;5047912;28;20413;-79
2023/09/26 12:42:18;;;;;;;1.83;1.73;;;;;;;;;;5034341;28;20028;-79
2023/09/26 12:44:43;;;;;;;2.00;1.77;;;;;;;;;;5038305;28;20043;-79
2023/09/26 12:47:08;;;;;;;2.55;1.92;;;;;;;;;;5036890;28;20043;-79
2023/09/26 12:49:34;;;;;;;2.20;1.90;;;;;;;;;;5032503;28;20084;-79
2023/09/26 12:52:01;;;;;;;4.22;1.90;;;;;;;;;;5030711;28;20132;-79
2023/09/26 12:54:26;;;;;;;2.60;2.22;;;;;;;;;;5032173;28;20084;-79
2023/09/26 12:56:52;;;;;;;3.90;2.10;;;;;;;;;;5038817;28;20031;-79
2023/09/26 12:59:17;;;;;;;2.00;1.90;;;;;;;;;;5041501;28;20109;-79
2023/09/26 13:01:43;;;;;;;1.73;1.63;;;;;;;;;;5037731;28;20567;-79
2023/09/26 13:04:08;;;;;;;5.68;2.35;;;;;;;;;;5032584;28;20037;-79
2023/09/26 13:06:34;;;;;;;4.18;1.90;;;;;;;;;;5027185;28;20033;-79
2023/09/26 13:08:59;;;;;;;2.05;1.90;;;;;;;;;;5034826;28;20739;-79
2023/09/26 13:11:25;;;;;;;2.08;1.98;;;;;;;;;;5031910;28;20330;-79
2023/09/26 13:13:50;;;;;;;3.28;2.20;;;;;;;;;;5029200;28;20037;-79
2023/09/26 13:16:16;;;;;;;3.10;2.10;;;;;;;;;;5037915;28;20838;-79
2023/09/26 13:18:41;;;;;;;2.33;2.13;;;;;;;;;;5033705;28;20041;-80
2023/09/26 13:21:06;;;;;;;2.13;2.00;;;;;;;;;;5029282;28;20032;-79
2023/09/26 13:23:33;;;;;;;3.83;2.47;;;;;;;;;;5030072;28;20072;-79
2023/09/26 13:25:59;;;;;;;2.95;1.80;;;;;;;;;;5031071;28;20041;-79
2023/09/26 13:28:24;;;;;;;2.00;1.90;;;;;;;;;;5030665;28;20041;-79
2023/09/26 13:30:49;;;;;;;4.75;1.88;;;;;;;;;;5043840;28;20559;-79
2023/09/26 13:33:15;;;;;;;3.25;1.90;;;;;;;;;;5031169;28;20053;-79
2023/09/26 13:35:42;;;;;;;2.30;2.10;;;;;;;;;;5028487;28;20470;-80
2023/09/26 13:38:07;;;;;;;2.58;1.90;;;;;;;;;;5027042;28;20093;-79
2023/09/26 13:40:32;;;;;;;4.50;2.00;;;;;;;;;;5021999;28;20053;-79
2023/09/26 13:42:58;;;;;;;3.15;2.10;;;;;;;;;;5021896;28;20041;-79
2023/09/26 13:45:23;;;;;;;9.38;2.58;;;;;;;;;;5019793;28;20045;-79
2023/09/26 13:47:48;;;;;;;3.88;2.00;;;;;;;;;;5025439;28;20029;-79
2023/09/26 13:50:14;;;;;;;2.58;2.20;;;;;;;;;;5030559;28;20025;-79
2023/09/26 13:52:39;;;;;;;4.20;2.00;;;;;;;;;;5023269;28;20068;-80
2023/09/26 13:55:05;;;;;;;2.30;2.10;;;;;;;;;;5035379;28;20033;-79
2023/09/26 13:57:30;;;;;;;3.45;1.90;;;;;;;;;;5036445;28;20044;-77
2023/09/26 13:59:55;;;;;;;2.67;2.13;;;;;;;;;;5037016;28;20110;-78
2023/09/26 14:02:21;;;;;;;1.90;1.70;;;;;;;;;;5040586;28;20022;-78
2023/09/26 14:04:46;;;;;;;1.85;1.75;;;;;;;;;;5038946;28;20419;-78
2023/09/26 14:07:11;;;;;;;2.28;2.00;;;;;;;;;;5043463;28;20058;-78
2023/09/26 14:09:37;;;;;;;3.25;1.80;;;;;;;;;;5039971;28;20036;-78
2023/09/26 14:12:06;;;;;;;1.90;1.80;;;;;;;;;;5047353;28;20025;-79
2023/09/26 14:14:33;;;;;;;4.70;2.00;;;;;;;;;;5042840;28;20478;-78
2023/09/26 14:16:59;;;;;;;4.60;1.77;;;;;;;;;;5042264;28;20442;-78
2023/09/26 14:19:24;;;;;;;2.97;1.80;;;;;;;;;;5036280;28;20032;-78
2023/09/26 14:21:49;;;;;;;2.20;1.75;;;;;;;;;;5040317;28;20033;-78
2023/09/26 14:24:15;;;;;;;1.90;1.77;;;;;;;;;;5032597;28;20028;-78
2023/09/26 14:26:41;;;;;;;4.05;1.90;;;;;;;;;;5039342;28;20017;-78
2023/09/26 14:29:06;;;;;;;4.70;1.85;;;;;;;;;;5050948;28;20032;-78
2023/09/26 14:31:31;;;;;;;3.47;1.80;;;;;;;;;;5046334;28;20083;-78